Time;durP1;ratioP1;P1;durP2;ratioP2;P2;SDS_P1;SDS_P2;PMS_P1;PMS_P2;Temp;Humidity;BMP_temperature;BMP_pressure;BME280_temperature;BME280_humidity;BME280_pressure;Samples;Min_cycle;Max_cycle;Signal;HPM_P1;HPM_P2
2022/01/24 00:01:59;;;;;;;4.70;2.67;;;6.70;99.90;;;;;;5051336;28;20569;-81
2022/01/24 00:04:26;;;;;;;4.63;2.80;;;6.70;99.90;;;;;;5052324;28;20529;-79
2022/01/24 00:06:54;;;;;;;3.43;1.90;;;6.70;99.90;;;;;;5055316;28;20864;-79
2022/01/24 00:09:21;;;;;;;3.37;2.23;;;6.70;99.90;;;;;;5055716;28;21015;-78
2022/01/24 00:12:01;;;;;;;3.30;2.30;;;6.60;99.90;;;;;;5056232;28;20454;-80
2022/01/24 00:17:17;;;;;;;3.60;2.10;;;6.70;99.90;;;;;;5055293;28;20466;-79
2022/01/24 00:27:59;;;;;;;3.40;2.30;;;6.80;99.90;;;;;;5036259;28;20820;-81
2022/01/24 00:30:27;;;;;;;2.93;2.13;;;6.80;99.90;;;;;;5042834;28;20460;-80
2022/01/24 00:32:53;;;;;;;2.87;2.10;;;6.80;99.90;;;;;;5055370;28;20465;-76
2022/01/24 00:35:20;;;;;;;3.67;2.00;;;6.90;99.90;;;;;;5055135;28;20483;-78
2022/01/24 00:37:47;;;;;;;3.07;1.83;;;6.80;99.90;;;;;;5053383;28;20464;-78
2022/01/24 00:40:14;;;;;;;2.70;2.10;;;6.80;99.90;;;;;;5056112;28;20828;-78
2022/01/24 00:42:51;;;;;;;3.33;2.23;;;6.80;99.90;;;;;;5056528;28;21144;-79
2022/01/24 00:45:30;;;;;;;2.80;1.80;;;6.80;99.90;;;;;;5055484;28;20589;-78
2022/01/24 00:48:21;;;;;;;3.13;2.00;;;6.80;99.90;;;;;;5052822;28;20457;-79
2022/01/24 00:53:49;;;;;;;2.23;1.60;;;6.70;99.90;;;;;;5054726;28;20946;-78
2022/01/24 00:56:16;;;;;;;3.33;2.03;;;6.80;99.90;;;;;;5054635;28;20504;-79
2022/01/24 00:58:43;;;;;;;3.10;2.00;;;6.70;99.90;;;;;;5054744;28;20450;-77
2022/01/24 01:01:11;;;;;;;2.90;2.00;;;6.80;99.90;;;;;;5054122;28;20478;-79
2022/01/24 01:03:38;;;;;;;3.37;1.90;;;6.70;99.90;;;;;;5054870;28;20472;-80
2022/01/24 01:06:07;;;;;;;3.37;2.20;;;6.60;99.90;;;;;;5053907;28;20473;-79
2022/01/24 01:19:36;;;;;;;2.80;1.50;;;6.70;99.90;;;;;;5053932;28;20446;-77
2022/01/24 01:22:04;;;;;;;3.23;2.20;;;6.80;99.90;;;;;;5054438;28;20451;-78
2022/01/24 01:24:35;;;;;;;3.23;1.90;;;6.80;99.90;;;;;;5053771;28;20530;-78
2022/01/24 01:27:08;;;;;;;2.40;1.70;;;6.70;99.90;;;;;;5054053;28;20494;-77
2022/01/24 01:29:46;;;;;;;2.60;1.77;;;6.70;99.90;;;;;;5053482;28;20880;-79
2022/01/24 01:32:21;;;;;;;3.03;1.60;;;6.80;99.90;;;;;;5053879;28;20458;-77
2022/01/24 01:54:14;;;;;;;2.90;1.90;;;6.80;99.90;;;;;;5052877;28;20476;-81
2022/01/24 01:56:41;;;;;;;2.90;2.00;;;6.80;99.90;;;;;;5053423;28;20541;-79
2022/01/24 01:59:08;;;;;;;2.70;1.87;;;6.70;99.90;;;;;;5054053;28;20449;-80
2022/01/24 02:01:35;;;;;;;2.73;1.90;;;6.80;99.90;;;;;;5054095;28;20458;-78
2022/01/24 02:04:05;;;;;;;4.17;2.27;;;6.80;99.90;;;;;;5053910;28;20462;-78
2022/01/24 02:06:32;;;;;;;2.93;1.70;;;6.80;99.90;;;;;;5053601;28;20489;-78
2022/01/24 02:09:00;;;;;;;7.13;1.57;;;6.80;99.90;;;;;;5053545;28;20496;-78
2022/01/24 02:11:26;;;;;;;2.73;1.90;;;6.80;99.90;;;;;;5053312;28;20873;-79
2022/01/24 02:13:54;;;;;;;2.70;1.80;;;6.90;99.90;;;;;;5053467;28;20494;-77
2022/01/24 02:16:30;;;;;;;2.40;1.40;;;6.90;99.90;;;;;;5052992;28;20475;-80
2022/01/24 02:19:10;;;;;;;3.07;2.00;;;6.80;99.90;;;;;;5052932;28;20538;-78
2022/01/24 02:21:46;;;;;;;3.80;1.67;;;6.80;99.90;;;;;;5052941;28;20467;-79
2022/01/24 02:24:15;;;;;;;2.93;1.77;;;6.70;99.90;;;;;;5052858;28;20459;-79
2022/01/24 02:26:42;;;;;;;2.40;1.60;;;6.70;99.90;;;;;;5051834;28;21010;-78
2022/01/24 02:29:16;;;;;;;2.80;1.60;;;6.80;99.90;;;;;;5052906;28;20498;-83
2022/01/24 02:31:46;;;;;;;3.10;2.00;;;6.70;99.90;;;;;;5053241;28;20471;-80
2022/01/24 02:34:25;;;;;;;3.40;1.50;;;6.70;99.90;;;;;;5053184;28;20451;-77
2022/01/24 02:36:55;;;;;;;2.30;1.63;;;6.60;99.90;;;;;;5048187;28;20490;-80
2022/01/24 02:50:32;;;;;;;2.83;2.17;;;6.70;99.90;;;;;;5055256;28;20490;-79
2022/01/24 02:53:00;;;;;;;2.00;1.40;;;6.70;99.90;;;;;;5053760;28;20546;-80
2022/01/24 02:55:27;;;;;;;2.43;1.73;;;6.70;99.90;;;;;;5054895;28;20475;-79
2022/01/24 02:57:53;;;;;;;2.00;1.30;;;6.70;99.90;;;;;;5054528;28;20465;-78
2022/01/24 03:00:20;;;;;;;2.87;2.13;;;6.60;99.90;;;;;;5054475;28;20455;-81
2022/01/24 03:02:47;;;;;;;2.47;1.57;;;6.70;99.90;;;;;;5055252;28;20947;-77
2022/01/24 03:05:14;;;;;;;2.50;1.60;;;6.70;99.90;;;;;;5054354;28;21020;-78
2022/01/24 03:07:41;;;;;;;2.30;1.17;;;6.70;99.90;;;;;;5055319;28;20450;-79
2022/01/24 03:10:14;;;;;;;2.23;1.30;;;6.70;99.90;;;;;;5055125;28;20487;-78
2022/01/24 03:12:43;;;;;;;2.10;1.30;;;6.70;99.90;;;;;;5055182;28;20437;-81
2022/01/24 03:15:11;;;;;;;2.50;1.87;;;6.70;99.90;;;;;;5034953;28;20462;-79
2022/01/24 03:17:38;;;;;;;2.63;1.57;;;6.70;99.90;;;;;;5049772;28;20980;-78
2022/01/24 03:20:07;;;;;;;2.30;1.60;;;6.70;99.90;;;;;;5054870;28;20459;-79
2022/01/24 03:22:34;;;;;;;2.30;1.33;;;6.70;99.90;;;;;;5054678;28;20469;-79
2022/01/24 03:25:01;;;;;;;2.03;1.20;;;6.60;99.90;;;;;;5054578;28;20452;-79
2022/01/24 03:27:29;;;;;;;2.43;1.53;;;6.60;99.90;;;;;;5054149;28;20962;-81
2022/01/24 03:29:56;;;;;;;3.60;1.47;;;6.70;99.90;;;;;;5055535;28;20509;-78
2022/01/24 03:32:23;;;;;;;2.17;1.43;;;6.70;99.90;;;;;;5053641;28;20464;-80
2022/01/24 03:34:49;;;;;;;2.10;1.60;;;6.70;99.90;;;;;;5053073;28;20458;-81
2022/01/24 03:37:16;;;;;;;2.10;1.37;;;6.70;99.90;;;;;;5052910;28;21090;-78
2022/01/24 03:39:43;;;;;;;3.10;1.30;;;6.70;99.90;;;;;;5052668;28;20454;-78
2022/01/24 03:42:10;;;;;;;2.57;1.70;;;6.70;99.90;;;;;;5052968;28;20465;-82
2022/01/24 03:44:38;;;;;;;2.53;1.40;;;6.70;99.90;;;;;;5052833;28;20466;-78
2022/01/24 03:47:29;;;;;;;2.37;1.50;;;6.70;99.90;;;;;;5052682;28;20490;-78
2022/01/24 03:49:56;;;;;;;2.73;1.60;;;6.60;99.90;;;;;;5052768;28;20583;-79
2022/01/24 03:52:23;;;;;;;2.43;1.60;;;6.70;99.90;;;;;;5052844;28;20819;-79
2022/01/24 03:54:51;;;;;;;2.23;1.30;;;6.70;99.90;;;;;;5051987;28;20462;-78
2022/01/24 03:57:20;;;;;;;2.27;2.00;;;6.70;99.90;;;;;;5052835;28;20513;-78
2022/01/24 03:59:48;;;;;;;2.77;1.60;;;6.60;99.90;;;;;;5053194;28;20453;-80
2022/01/24 04:02:16;;;;;;;2.70;1.50;;;6.60;99.90;;;;;;5052245;28;20803;-78
2022/01/24 04:04:43;;;;;;;2.70;1.80;;;6.60;99.90;;;;;;5052187;28;20454;-78
2022/01/24 04:07:10;;;;;;;2.50;1.40;;;6.50;99.90;;;;;;5052462;28;20500;-78
2022/01/24 04:09:39;;;;;;;3.20;1.80;;;6.60;99.90;;;;;;5052491;28;20500;-80
2022/01/24 04:12:08;;;;;;;2.53;1.53;;;6.60;99.90;;;;;;5052598;28;20844;-77
2022/01/24 04:14:39;;;;;;;2.60;1.70;;;6.60;99.90;;;;;;5051905;28;20458;-77
2022/01/24 04:17:24;;;;;;;2.60;1.43;;;6.70;99.90;;;;;;5051982;28;20478;-80
2022/01/24 04:22:47;;;;;;;2.43;1.63;;;6.70;99.90;;;;;;5052486;28;20493;-79
2022/01/24 04:25:16;;;;;;;3.30;1.10;;;6.70;99.90;;;;;;5052161;28;20532;-79
2022/01/24 04:27:43;;;;;;;2.43;1.47;;;6.70;99.90;;;;;;5051922;28;20469;-78
2022/01/24 04:30:11;;;;;;;1.80;1.10;;;6.70;99.90;;;;;;5052177;28;20511;-77
2022/01/24 04:32:40;;;;;;;2.80;1.87;;;6.70;99.90;;;;;;5052422;28;20460;-78
2022/01/24 04:35:07;;;;;;;2.23;1.43;;;6.70;99.90;;;;;;5051963;28;20454;-78
2022/01/24 04:37:34;;;;;;;1.80;1.20;;;6.70;99.90;;;;;;5052275;28;20454;-81
2022/01/24 04:40:01;;;;;;;2.20;1.80;;;6.70;99.90;;;;;;5051862;28;20450;-80
2022/01/24 04:42:30;;;;;;;3.17;1.60;;;6.70;99.90;;;;;;5059661;28;20523;-79
2022/01/24 04:45:20;;;;;;;5.03;1.30;;;6.60;99.90;;;;;;5068005;28;20474;-79
2022/01/24 04:50:26;;;;;;;2.23;1.50;;;6.70;99.90;;;;;;5048398;22;20981;-80
2022/01/24 04:50:46;;;;;;;1.90;1.30;;;6.70;99.90;;;;;;5033036;28;20468;-80
2022/01/24 04:53:29;;;;;;;2.60;1.63;;;6.70;99.90;;;;;;5029465;28;20543;-81
2022/01/24 04:55:56;;;;;;;2.47;1.30;;;6.70;99.90;;;;;;5025095;28;20491;-82
2022/01/24 04:58:23;;;;;;;2.40;1.63;;;6.60;99.90;;;;;;5024136;28;20460;-81
2022/01/24 05:00:49;;;;;;;2.20;1.50;;;6.70;99.90;;;;;;5025157;28;20480;-81
2022/01/24 05:03:18;;;;;;;2.40;1.67;;;6.70;99.90;;;;;;5023618;28;20470;-81
2022/01/24 05:05:45;;;;;;;3.80;1.70;;;6.70;99.90;;;;;;5023524;28;20837;-80
2022/01/24 05:08:14;;;;;;;2.17;1.47;;;6.70;99.90;;;;;;5017809;28;20458;-82
2022/01/24 05:10:53;;;;;;;2.20;1.37;;;6.70;99.90;;;;;;5024155;28;20485;-81
2022/01/24 05:23:24;;;;;;;2.83;1.50;;;6.70;99.90;;;;;;5026995;28;20485;-81
2022/01/24 05:24:24;;;;;;;2.23;1.47;;;6.70;99.90;;;;;;5023831;28;20447;-81
2022/01/24 05:26:51;;;;;;;2.83;1.70;;;6.70;99.90;;;;;;5018042;28;20513;-81
2022/01/24 05:29:18;;;;;;;9.70;6.00;;;6.70;99.90;;;;;;5008157;28;20210;-81
2022/01/24 05:31:45;;;;;;;1.70;0.80;;;6.70;99.90;;;;;;5020761;28;20465;-78
2022/01/24 05:34:13;;;;;;;29.50;13.47;;;8.00;99.90;;;;;;5024242;28;20467;-79
2022/01/24 05:36:40;;;;;;;22.70;11.20;;;9.40;99.90;;;;;;5021204;28;20553;-80
2022/01/24 05:39:07;;;;;;;4.60;2.80;;;9.90;99.90;;;;;;5013255;28;20451;-80
2022/01/24 05:41:35;;;;;;;2.90;2.10;;;9.20;99.90;;;;;;5018872;28;20457;-81
2022/01/24 05:44:02;;;;;;;3.67;1.50;;;8.70;99.90;;;;;;5018123;28;20453;-81
2022/01/24 05:46:29;;;;;;;4.23;2.17;;;8.40;99.90;;;;;;5017757;28;20486;-81
2022/01/24 05:48:56;;;;;;;3.40;2.20;;;8.20;99.90;;;;;;5017761;28;20954;-80
2022/01/24 05:51:24;;;;;;;2.90;1.73;;;7.90;99.90;;;;;;5017690;28;20515;-81
2022/01/24 05:53:51;;;;;;;3.10;1.90;;;7.60;99.90;;;;;;5017561;28;20450;-80
2022/01/24 05:56:19;;;;;;;2.90;1.80;;;7.50;99.90;;;;;;5002466;28;21040;-82
2022/01/24 05:58:46;;;;;;;2.33;1.60;;;7.40;99.90;;;;;;4998267;28;20456;-80
2022/01/24 06:01:12;;;;;;;3.53;1.90;;;7.40;99.90;;;;;;4998435;28;20981;-81
2022/01/24 06:03:39;;;;;;;2.13;1.57;;;7.20;99.90;;;;;;4997582;28;20453;-81
2022/01/24 06:06:08;;;;;;;3.07;2.10;;;7.20;99.90;;;;;;5011108;28;20478;-81
2022/01/24 06:08:36;;;;;;;3.10;1.80;;;7.10;99.90;;;;;;5017840;28;20468;-81
2022/01/24 06:11:03;;;;;;;4.00;2.43;;;7.10;99.90;;;;;;5017536;28;20495;-81
2022/01/24 06:13:31;;;;;;;4.50;1.93;;;7.00;99.90;;;;;;5010112;28;21128;-80
2022/01/24 06:15:58;;;;;;;3.17;2.17;;;6.90;99.90;;;;;;5024843;28;20495;-79
2022/01/24 06:18:25;;;;;;;3.43;2.20;;;7.00;99.90;;;;;;5029304;28;20552;-81
2022/01/24 06:20:53;;;;;;;3.17;1.93;;;6.90;99.90;;;;;;5004882;28;20473;-79
2022/01/24 06:23:21;;;;;;;2.77;1.90;;;6.80;99.90;;;;;;5010569;28;20469;-80
2022/01/24 06:25:49;;;;;;;2.90;2.00;;;6.80;99.90;;;;;;5013669;28;20560;-83
2022/01/24 06:28:16;;;;;;;2.50;2.20;;;6.80;99.90;;;;;;5014658;28;20512;-81
2022/01/24 06:30:44;;;;;;;3.10;2.20;;;6.80;99.90;;;;;;5025296;28;20480;-80
2022/01/24 06:33:11;;;;;;;3.57;2.50;;;6.80;99.90;;;;;;5012749;28;20499;-81
2022/01/24 06:35:38;;;;;;;3.40;2.47;;;6.70;99.90;;;;;;5013484;28;20980;-80
2022/01/24 06:38:05;;;;;;;3.97;2.20;;;6.70;99.90;;;;;;5013608;28;20484;-82
2022/01/24 06:40:32;;;;;;;3.03;2.40;;;6.70;99.90;;;;;;5012688;28;20968;-80
2022/01/24 06:43:00;;;;;;;4.37;2.70;;;6.70;99.90;;;;;;5012872;28;20535;-80
2022/01/24 06:45:27;;;;;;;3.43;2.60;;;6.70;99.90;;;;;;5012846;28;20469;-81
2022/01/24 06:47:54;;;;;;;2.80;2.40;;;6.70;99.90;;;;;;5014593;28;20827;-80
2022/01/24 06:50:21;;;;;;;3.27;2.33;;;6.60;99.90;;;;;;5010159;28;20495;-81
2022/01/24 06:52:48;;;;;;;3.77;2.40;;;6.70;99.90;;;;;;5007849;28;20464;-81
2022/01/24 06:55:15;;;;;;;3.53;2.27;;;6.60;99.90;;;;;;4994079;28;20457;-80
2022/01/24 06:57:41;;;;;;;4.50;2.90;;;6.60;99.90;;;;;;5013480;28;20560;-81
2022/01/24 07:00:11;;;;;;;3.90;3.07;;;6.50;99.90;;;;;;5014159;28;20464;-80
2022/01/24 07:02:38;;;;;;;2.93;2.53;;;6.60;99.90;;;;;;5014405;28;20454;-80
2022/01/24 07:05:05;;;;;;;3.57;2.67;;;6.60;99.90;;;;;;5013654;28;20449;-81
2022/01/24 07:07:33;;;;;;;4.17;3.03;;;6.60;99.90;;;;;;5013824;28;20472;-81
2022/01/24 07:10:00;;;;;;;5.30;3.30;;;6.50;99.90;;;;;;5013861;28;20482;-82
2022/01/24 07:12:27;;;;;;;3.50;2.60;;;6.50;99.90;;;;;;5013983;28;20459;-81
2022/01/24 07:14:54;;;;;;;4.33;3.57;;;6.60;99.90;;;;;;5010740;28;20460;-80
2022/01/24 07:17:35;;;;;;;6.30;3.20;;;6.50;99.90;;;;;;5012922;28;20495;-81
2022/01/24 07:20:02;;;;;;;2.87;2.43;;;6.50;99.90;;;;;;5013450;28;20480;-81
2022/01/24 07:22:28;;;;;;;4.07;3.07;;;6.60;99.90;;;;;;5012377;28;20489;-80
2022/01/24 07:24:55;;;;;;;3.90;2.87;;;6.50;99.90;;;;;;5013256;28;21281;-80
2022/01/24 07:27:22;;;;;;;3.80;3.10;;;6.50;99.90;;;;;;5013749;28;20555;-81
2022/01/24 07:29:49;;;;;;;4.33;3.03;;;6.60;99.90;;;;;;5015041;28;20516;-81
2022/01/24 07:32:16;;;;;;;3.80;3.37;;;6.60;99.90;;;;;;5011574;28;20547;-81
2022/01/24 07:34:44;;;;;;;4.43;3.30;;;6.50;99.90;;;;;;5012323;28;20548;-80
2022/01/24 07:37:11;;;;;;;3.80;3.30;;;6.50;99.90;;;;;;5012759;28;20519;-80
2022/01/24 07:39:38;;;;;;;4.83;4.00;;;6.50;99.90;;;;;;5014494;28;20535;-81
2022/01/24 07:42:15;;;;;;;3.50;2.37;;;6.50;99.90;;;;;;4998966;28;20487;-79
2022/01/24 07:44:42;;;;;;;3.40;3.10;;;6.50;99.90;;;;;;5001210;28;20472;-80
2022/01/24 07:47:09;;;;;;;3.23;2.60;;;6.50;99.90;;;;;;5012982;28;20511;-80
2022/01/24 07:49:38;;;;;;;3.93;3.37;;;6.60;99.90;;;;;;5013526;28;20497;-77
2022/01/24 07:52:07;;;;;;;3.63;3.23;;;6.40;99.90;;;;;;5008640;28;20477;-82
2022/01/24 07:54:37;;;;;;;4.50;4.10;;;6.30;99.90;;;;;;5010022;28;20456;-81
2022/01/24 07:57:04;;;;;;;4.33;3.73;;;6.50;99.90;;;;;;5005165;28;20464;-81
2022/01/24 07:59:31;;;;;;;5.20;3.97;;;6.40;99.90;;;;;;5006064;28;20456;-81
2022/01/24 08:01:58;;;;;;;6.83;3.30;;;6.40;99.90;;;;;;5007319;28;20458;-80
2022/01/24 08:04:25;;;;;;;4.37;3.73;;;6.50;99.90;;;;;;5008598;28;20486;-80
2022/01/24 08:06:53;;;;;;;3.97;3.67;;;6.50;99.90;;;;;;5012902;28;20483;-81
2022/01/24 08:09:39;;;;;;;3.73;3.30;;;6.50;99.90;;;;;;5011019;28;20445;-83
2022/01/24 08:12:07;;;;;;;6.33;3.57;;;6.50;99.90;;;;;;5016488;28;20481;-82
2022/01/24 08:14:34;;;;;;;4.50;3.80;;;6.60;99.90;;;;;;5012050;28;20457;-82
2022/01/24 08:17:04;;;;;;;5.43;4.20;;;6.70;99.90;;;;;;5016953;28;20508;-82
2022/01/24 08:19:34;;;;;;;4.53;3.70;;;6.70;99.90;;;;;;5013472;28;20915;-79
2022/01/24 08:22:02;;;;;;;7.20;3.70;;;6.60;99.90;;;;;;5019781;28;20456;-81
2022/01/24 08:24:32;;;;;;;5.17;4.17;;;6.60;99.90;;;;;;5011482;28;20455;-82
2022/01/24 08:27:00;;;;;;;4.53;4.10;;;6.70;99.90;;;;;;5027723;28;20490;-80
2022/01/24 08:29:27;;;;;;;4.10;3.70;;;6.70;99.90;;;;;;5028408;28;20515;-81
2022/01/24 08:31:54;;;;;;;4.40;4.00;;;6.60;99.90;;;;;;5011266;28;20490;-81
2022/01/24 08:34:21;;;;;;;4.97;3.80;;;6.50;99.90;;;;;;4999846;28;20461;-82
2022/01/24 08:36:48;;;;;;;6.70;4.87;;;6.50;99.90;;;;;;5001214;28;20936;-82
2022/01/24 08:39:15;;;;;;;5.50;4.50;;;6.50;99.90;;;;;;5009510;28;20991;-82
2022/01/24 08:41:56;;;;;;;4.73;4.23;;;6.70;99.90;;;;;;5019827;28;20452;-81
2022/01/24 08:45:41;;;;;;;7.37;4.03;;;6.70;99.90;;;;;;5003440;28;20467;-82
2022/01/24 08:47:19;;;;;;;4.70;3.80;;;6.70;99.90;;;;;;5000615;28;20515;-82
2022/01/24 08:49:46;;;;;;;5.70;4.13;;;6.70;99.90;;;;;;5016723;28;20479;-82
2022/01/24 08:52:13;;;;;;;5.53;4.93;;;6.60;99.90;;;;;;5016936;28;20510;-82
2022/01/24 08:54:40;;;;;;;4.33;3.93;;;6.70;99.90;;;;;;5009935;28;20475;-82
2022/01/24 08:57:07;;;;;;;4.60;3.73;;;6.70;99.90;;;;;;5008319;28;20464;-81
2022/01/24 08:59:46;;;;;;;5.00;4.50;;;6.60;99.90;;;;;;5009984;28;20465;-82
2022/01/24 09:02:13;;;;;;;5.77;5.07;;;6.50;99.90;;;;;;5010118;28;20533;-81
2022/01/24 09:04:40;;;;;;;5.40;4.90;;;6.50;99.90;;;;;;5012716;28;20533;-82
2022/01/24 09:07:07;;;;;;;5.37;4.87;;;6.70;99.90;;;;;;5009926;28;20520;-82
2022/01/24 09:09:35;;;;;;;4.83;4.27;;;6.50;99.90;;;;;;5010316;28;20487;-82
2022/01/24 09:12:03;;;;;;;5.53;4.27;;;6.50;99.90;;;;;;5007751;28;20488;-81
2022/01/24 09:14:30;;;;;;;5.60;4.70;;;6.60;99.90;;;;;;5015017;28;20452;-82
2022/01/24 09:16:58;;;;;;;5.83;4.17;;;6.70;99.90;;;;;;5005789;28;20485;-81
2022/01/24 09:19:25;;;;;;;5.03;4.17;;;6.80;99.90;;;;;;5006097;28;20466;-81
2022/01/24 09:21:52;;;;;;;4.40;4.00;;;6.80;99.90;;;;;;5007948;28;20477;-82
2022/01/24 09:24:19;;;;;;;4.53;4.13;;;6.80;99.90;;;;;;5015979;28;20536;-83
2022/01/24 09:26:46;;;;;;;5.40;4.90;;;6.70;99.90;;;;;;5011869;28;20495;-81
2022/01/24 09:29:13;;;;;;;5.70;4.60;;;6.70;99.90;;;;;;4999307;28;20493;-82
2022/01/24 09:31:40;;;;;;;4.87;4.47;;;6.70;99.90;;;;;;4999251;28;20584;-81
2022/01/24 09:34:08;;;;;;;4.57;3.87;;;6.80;99.90;;;;;;5008676;28;20873;-82
2022/01/24 09:36:35;;;;;;;4.60;4.20;;;6.80;99.90;;;;;;5020151;28;20551;-82
2022/01/24 09:39:03;;;;;;;5.23;4.70;;;6.80;99.90;;;;;;5017810;28;20826;-82
2022/01/24 09:41:30;;;;;;;11.77;4.10;;;6.70;99.90;;;;;;5000610;28;20445;-83
2022/01/24 09:43:57;;;;;;;4.07;3.67;;;6.80;99.90;;;;;;5005375;28;20458;-80
2022/01/24 09:46:24;;;;;;;7.50;4.40;;;6.90;99.90;;;;;;5018940;28;20552;-81
2022/01/24 09:48:52;;;;;;;5.87;5.03;;;6.90;99.90;;;;;;5020390;28;20964;-81
2022/01/24 09:51:20;;;;;;;5.40;4.33;;;7.00;99.90;;;;;;5019274;28;20478;-81
2022/01/24 09:53:48;;;;;;;5.63;5.03;;;7.10;99.90;;;;;;5019050;28;20463;-81
2022/01/24 09:56:15;;;;;;;5.63;4.53;;;7.10;99.90;;;;;;5012658;28;20501;-80
2022/01/24 09:58:42;;;;;;;4.53;4.13;;;7.00;99.90;;;;;;5009928;28;20464;-81
2022/01/24 10:01:09;;;;;;;7.60;5.40;;;7.00;99.90;;;;;;5019641;28;20563;-81
2022/01/24 10:03:37;;;;;;;5.30;4.80;;;7.00;99.90;;;;;;5003877;28;20478;-81
2022/01/24 10:06:07;;;;;;;5.33;4.83;;;7.00;99.90;;;;;;5007722;28;20473;-82
2022/01/24 10:08:35;;;;;;;7.10;5.17;;;7.10;99.90;;;;;;4999627;28;20540;-82
2022/01/24 10:11:06;;;;;;;5.63;4.70;;;7.20;99.90;;;;;;5001470;28;20477;-81
2022/01/24 10:16:30;;;;;;;5.43;4.73;;;7.10;99.90;;;;;;5019287;28;20471;-80
2022/01/24 10:19:06;;;;;;;5.30;4.30;;;7.00;99.90;;;;;;5019368;28;20472;-81
2022/01/24 10:21:39;;;;;;;5.73;4.30;;;7.00;99.90;;;;;;5018103;28;20868;-82
2022/01/24 10:24:08;;;;;;;4.90;3.90;;;7.10;99.90;;;;;;5011287;28;20469;-80
2022/01/24 10:26:35;;;;;;;5.73;5.10;;;6.90;99.90;;;;;;5018402;28;20480;-80
2022/01/24 10:29:02;;;;;;;5.27;4.40;;;6.90;99.90;;;;;;5018458;28;20922;-81
2022/01/24 10:31:29;;;;;;;8.10;4.10;;;6.80;99.90;;;;;;5017328;28;20591;-81
2022/01/24 10:34:03;;;;;;;4.40;4.00;;;7.00;99.90;;;;;;5007196;28;20460;-80
2022/01/24 10:36:39;;;;;;;5.77;5.10;;;7.10;99.90;;;;;;5018223;28;20473;-80
2022/01/24 10:39:21;;;;;;;7.40;4.77;;;7.20;99.90;;;;;;5013723;28;20519;-81
2022/01/24 10:42:23;;;;;;;5.63;4.87;;;7.20;99.90;;;;;;5007665;28;20545;-81
2022/01/24 10:44:51;;;;;;;6.83;5.20;;;7.20;99.90;;;;;;4999426;28;20492;-81
2022/01/24 10:47:22;;;;;;;4.93;4.50;;;7.30;99.90;;;;;;5012021;28;20520;-82
2022/01/24 10:49:50;;;;;;;5.33;4.83;;;7.30;99.90;;;;;;5016015;28;20453;-82
2022/01/24 10:52:19;;;;;;;6.63;5.10;;;7.50;99.90;;;;;;5014010;28;20476;-81
2022/01/24 10:54:49;;;;;;;6.07;4.20;;;7.40;99.90;;;;;;5002055;28;20819;-82
2022/01/24 10:57:25;;;;;;;6.37;4.30;;;7.40;99.90;;;;;;5002669;28;20517;-82
2022/01/24 11:00:00;;;;;;;5.00;4.50;;;7.30;99.90;;;;;;5009334;28;20461;-82
2022/01/24 11:02:35;;;;;;;5.67;4.37;;;7.30;99.90;;;;;;5014871;28;20452;-80
2022/01/24 11:05:11;;;;;;;6.20;4.90;;;7.50;99.90;;;;;;5017280;28;20467;-81
2022/01/24 11:07:51;;;;;;;5.67;4.20;;;7.60;99.90;;;;;;5016755;28;20477;-81
2022/01/24 11:10:21;;;;;;;4.87;4.40;;;7.70;99.90;;;;;;5014035;28;20488;-80
2022/01/24 11:12:48;;;;;;;5.40;4.50;;;7.60;99.90;;;;;;5018946;28;20505;-79
2022/01/24 11:15:15;;;;;;;5.80;4.40;;;7.30;99.90;;;;;;5018193;28;20487;-82
2022/01/24 11:17:44;;;;;;;5.10;4.30;;;7.30;99.90;;;;;;5019630;28;20564;-80
2022/01/24 11:20:16;;;;;;;5.10;4.03;;;7.40;99.90;;;;;;5019852;28;20463;-81
2022/01/24 11:22:46;;;;;;;8.23;4.60;;;7.60;99.90;;;;;;5011218;28;20457;-80
2022/01/24 11:25:15;;;;;;;4.70;4.00;;;7.60;99.90;;;;;;5004573;28;20470;-80
2022/01/24 11:27:47;;;;;;;4.90;4.40;;;7.60;99.90;;;;;;5010402;28;20527;-82
2022/01/24 11:30:17;;;;;;;5.83;4.30;;;7.60;99.90;;;;;;5018786;28;20546;-80
2022/01/24 11:32:51;;;;;;;5.83;4.23;;;7.60;99.90;;;;;;5020969;28;20548;-79
2022/01/24 11:35:32;;;;;;;5.23;4.73;;;7.60;99.90;;;;;;5030057;28;20476;-81
2022/01/24 11:38:00;;;;;;;5.83;5.23;;;7.50;99.90;;;;;;5020819;28;20475;-81
2022/01/24 11:40:28;;;;;;;6.27;4.90;;;7.60;99.90;;;;;;5019130;28;20465;-81
2022/01/24 11:42:57;;;;;;;4.80;4.30;;;7.60;99.90;;;;;;5018815;28;20453;-80
2022/01/24 11:45:44;;;;;;;5.77;3.80;;;7.60;99.90;;;;;;5020979;28;20523;-81
2022/01/24 11:48:17;;;;;;;5.17;4.20;;;7.70;99.90;;;;;;5020138;28;20529;-81
2022/01/24 11:50:56;;;;;;;7.03;4.03;;;7.70;99.90;;;;;;5020869;28;20453;-81
2022/01/24 11:53:24;;;;;;;5.30;4.80;;;7.50;99.90;;;;;;5018528;28;20480;-82
2022/01/24 11:55:54;;;;;;;5.27;4.80;;;7.30;99.90;;;;;;5019208;28;20542;-81
2022/01/24 11:58:29;;;;;;;5.20;4.70;;;7.50;99.90;;;;;;5020606;28;20456;-80
2022/01/24 12:01:01;;;;;;;5.43;4.43;;;7.50;99.90;;;;;;5023050;28;20882;-81
2022/01/24 12:03:28;;;;;;;5.63;4.33;;;7.60;99.90;;;;;;5023499;28;20552;-81
2022/01/24 12:05:57;;;;;;;6.80;4.03;;;7.60;99.90;;;;;;5004732;28;20479;-82
2022/01/24 12:08:34;;;;;;;4.83;3.67;;;7.60;99.90;;;;;;5005097;28;20982;-80
2022/01/24 12:11:19;;;;;;;4.90;4.40;;;7.40;99.90;;;;;;5004207;28;20466;-82
2022/01/24 12:13:49;;;;;;;6.27;4.57;;;7.30;99.90;;;;;;5002933;28;20502;-82
2022/01/24 12:16:18;;;;;;;5.70;4.13;;;7.20;99.90;;;;;;5003729;28;20478;-80
2022/01/24 12:19:01;;;;;;;6.80;4.63;;;7.30;99.90;;;;;;5004148;28;20470;-81
2022/01/24 12:21:30;;;;;;;4.87;3.90;;;7.40;99.90;;;;;;5005795;28;20497;-82
2022/01/24 12:24:00;;;;;;;4.97;4.30;;;7.60;99.90;;;;;;5007399;28;20472;-80
2022/01/24 12:26:33;;;;;;;4.90;3.90;;;7.50;99.90;;;;;;5024257;28;20469;-81
2022/01/24 12:29:04;;;;;;;5.70;4.00;;;7.50;99.90;;;;;;5023470;28;21043;-81
2022/01/24 12:31:44;;;;;;;6.30;4.73;;;7.40;99.90;;;;;;5018732;28;20452;-81
2022/01/24 12:34:27;;;;;;;5.33;4.63;;;7.40;99.90;;;;;;5021626;28;20938;-81
2022/01/24 12:37:02;;;;;;;5.80;5.20;;;7.50;99.90;;;;;;5020874;28;20499;-81
2022/01/24 12:39:33;;;;;;;6.20;5.37;;;7.60;99.90;;;;;;5020554;28;20457;-81
2022/01/24 12:42:04;;;;;;;5.20;4.70;;;7.40;99.90;;;;;;5006986;28;20460;-82
2022/01/24 12:47:20;;;;;;;5.37;4.87;;;7.50;99.90;;;;;;5025674;28;20491;-81
2022/01/24 12:49:50;;;;;;;7.57;4.93;;;7.40;99.90;;;;;;5021053;28;20461;-80
2022/01/24 12:52:19;;;;;;;6.77;4.93;;;7.40;99.90;;;;;;5021510;28;20481;-81
2022/01/24 12:54:48;;;;;;;5.13;4.50;;;7.50;99.90;;;;;;5016140;28;20495;-80
2022/01/24 12:57:16;;;;;;;10.90;5.37;;;7.50;99.90;;;;;;5018939;28;20535;-81
2022/01/24 12:59:55;;;;;;;6.63;5.37;;;7.50;99.90;;;;;;5020536;28;20823;-82
2022/01/24 13:02:27;;;;;;;5.77;4.80;;;7.30;99.90;;;;;;5021009;28;20452;-80
2022/01/24 13:05:01;;;;;;;5.80;4.83;;;7.20;99.90;;;;;;5019566;28;20461;-81
2022/01/24 13:07:31;;;;;;;5.20;4.63;;;7.40;99.90;;;;;;5020802;28;20484;-81
2022/01/24 13:10:08;;;;;;;5.87;5.23;;;7.40;99.90;;;;;;5020337;28;20457;-81
2022/01/24 13:12:37;;;;;;;4.83;2.00;;;7.50;99.90;;;;;;5023797;28;20505;-80
2022/01/24 13:15:19;;;;;;;4.93;3.17;;;9.00;99.90;;;;;;5022315;28;20463;-80
2022/01/24 13:23:22;;;;;;;5.40;4.60;;;10.30;99.90;;;;;;5004437;28;20303;-80
2022/01/24 13:25:50;;;;;;;5.87;5.20;;;9.90;99.90;;;;;;5023762;28;20473;-82
2022/01/24 13:28:19;;;;;;;6.00;5.27;;;9.10;99.90;;;;;;5021415;28;20529;-81
2022/01/24 13:30:49;;;;;;;5.63;4.50;;;8.70;99.90;;;;;;5020706;28;20463;-82
2022/01/24 13:33:19;;;;;;;10.30;4.90;;;8.60;99.90;;;;;;5020988;28;20493;-81
2022/01/24 13:35:48;;;;;;;6.00;4.43;;;8.50;99.90;;;;;;5006133;28;20458;-82
2022/01/24 13:38:17;;;;;;;8.10;5.30;;;8.30;99.90;;;;;;5002280;28;20521;-82
2022/01/24 13:40:52;;;;;;;6.63;5.10;;;8.00;99.90;;;;;;5021397;28;20477;-81
2022/01/24 13:43:31;;;;;;;7.10;4.53;;;7.90;99.90;;;;;;5018275;28;20535;-81
2022/01/24 13:46:01;;;;;;;4.80;4.20;;;7.60;99.90;;;;;;5017798;28;20914;-82
2022/01/24 13:48:28;;;;;;;7.47;4.57;;;7.70;99.90;;;;;;5018644;28;20556;-81
2022/01/24 13:50:56;;;;;;;5.97;4.10;;;7.70;99.90;;;;;;5020293;28;20453;-82
2022/01/24 13:53:31;;;;;;;6.50;4.60;;;7.70;99.90;;;;;;5010982;28;21093;-81
2022/01/24 13:55:58;;;;;;;5.50;4.67;;;7.60;99.90;;;;;;5006285;28;20545;-81
2022/01/24 13:58:25;;;;;;;5.63;4.37;;;7.20;99.90;;;;;;5021552;28;20469;-83
2022/01/24 14:00:59;;;;;;;6.83;5.20;;;7.30;99.90;;;;;;5021137;28;20499;-81
2022/01/24 14:03:26;;;;;;;5.70;4.10;;;7.30;99.90;;;;;;5021288;28;20449;-82
2022/01/24 14:06:12;;;;;;;5.53;4.73;;;7.30;99.90;;;;;;5020489;28;20484;-82
2022/01/24 14:08:39;;;;;;;6.07;5.10;;;7.40;99.90;;;;;;5022329;28;20460;-81
2022/01/24 14:11:13;;;;;;;5.90;5.07;;;7.30;99.90;;;;;;5020784;28;20564;-82
2022/01/24 14:13:46;;;;;;;6.63;4.90;;;7.10;99.90;;;;;;5019706;28;20531;-81
2022/01/24 14:16:34;;;;;;;5.37;4.67;;;7.20;99.90;;;;;;5004437;28;20474;-82
2022/01/24 14:19:02;;;;;;;5.80;4.73;;;7.20;99.90;;;;;;5011614;28;20473;-82
2022/01/24 14:21:29;;;;;;;7.77;6.10;;;7.20;99.90;;;;;;5009118;28;20510;-81
2022/01/24 14:23:56;;;;;;;8.40;5.37;;;7.20;99.90;;;;;;5017780;28;21037;-82
2022/01/24 14:26:25;;;;;;;7.23;4.60;;;7.00;99.90;;;;;;5020141;28;20480;-80
2022/01/24 14:29:05;;;;;;;5.23;4.73;;;7.00;99.90;;;;;;5020362;28;20500;-82
2022/01/24 14:31:34;;;;;;;8.70;5.80;;;7.00;99.90;;;;;;5017231;28;20493;-82